Aneta, North Dakota
Current Conditions -  °F | °C
As of 9:58 PM on Thursday 27 Nov 2014 (Local Time) from KRDR Reporting Station
Overcast Overcast  
Wind Chill: -9°   Ceiling: 1200
Heat Index:   Visibility: 10mi
Dew Point:   Wind: 12mph
Humidity: 85%   Direction: 180°S
Pressure: 30.14"   Gusts: NA
Location:  47.68°N, 97.99°W
Report Text: KRDR 280358Z AUTO 18010KT 10SM BKN012 OVC070 M14/M16 A3014 RMK AO2 CIG 012V075 BKN V SCT SLP236 P0000
Loading
Personal Weather Stations






























Interactive Weather Map New forecast layout! Learn more

10-Day Weather Forecast

Advertisements
Track Severe Weather on mobile